Tiempo atmosférico en la estación meteorológica de Barcelona, Barcelona (25 m.)



Fecha
DESCASC
Temp. máxima en grados centígrados (hora)
DESCASC
Temp. mínima en grados centígrados (hora)
DESCASC
Temp. media en grados centígrados
DESCASC
Racha de viento máxima en m/sg (hora)
DESCASC
Velocidad máxima media en intervalos de 10 minutos(hora)
DESCASC
Precipitaciones diarias en mm
DESCASC
Precipitaciones de 00:00 a 06:00 en mm
DESCASC
Precipitaciones de 06:00 a 12:00 en mm
DESCASC
Precipitaciones de 12:00 a 18:00 en mm
DESCASC
Precipitaciones de 18:00 a 24:00 en mm
DESCASC
16-01-2020 14.3 (15:40) 6.2 (07:50) 10.3 7.22 (15:50) 5.56 (14:50) 0 0 0 0 0
15-01-2020 14.5 (14:50) 5.2 (08:10) 9.8 8.06 (16:10) 5 (15:50) 0 0 0 0 0
14-01-2020 15.1 (13:40) 4.1 (07:00) 9.6 7.5 (15:00) 5 (15:00) 0 0 0 0 0
13-01-2020 12.9 (15:00) 5.5 (08:50) 9.2 8.33 (15:30) 4.72 (13:50) 0 0 0 0 0
12-01-2020 13.4 (14:20) 4 (00:00) 8.7 5.56 (07:20) 3.89 (06:40) 0 0 0 0 0
11-01-2020 12.5 (15:00) 6.5 (00:00) 9.5 7.5 (09:50) 4.17 (09:10) 0 0 0 0 0
10-01-2020 12.4 (15:40) 8.2 (00:00) 10.3 10.56 (08:40) 8.89 (08:40) 12.8 0 12.7 0.1 0
09-01-2020 14.1 (14:10) 6.1 (00:00) 10.1 8.61 (16:50) 5.28 (14:20) 0 0 0 0 0
08-01-2020 16.4 (14:40) 7 (00:00) 11.7 5.83 (03:40) 4.44 (08:00) 0 0 0 0 0
07-01-2020 15.4 (15:10) 5.9 (00:00) 10.6 6.11 (16:50) 5 (16:30) 0 0 0 0 0
06-01-2020 15.6 (14:10) 5.9 (00:00) 10.8 6.11 (09:50) 4.17 (07:00) 0 0 0 0 0
05-01-2020 15.1 (14:20) 7 (00:00) 11.1 7.78 (16:00) 6.67 (16:00) 0 0 0 0 0
04-01-2020 15.8 (14:20) 4.7 (00:00) 10.3 7.78 (17:20) 5 (17:20) 0 0 0 0 0
03-01-2020 13.9 (14:30) 7.1 (00:00) 10.5 6.67 (10:10) 4.17 (10:30) 0 0 0 0 0
02-01-2020 13.9 (15:40) 4.4 (00:00) 9.1 7.5 (13:40) 4.17 (09:00) 0 0 0 0 0
01-01-2020 12.8 (14:00) 5 (00:00) 8.9 4.44 (14:20) 3.06 (08:00) 0 0 0 0 0
31-12-2019 14.1 (13:10) 8.4 (00:00) 11.3 6.67 (13:30) 3.89 (12:30) 0 0 0 0 0
30-12-2019 14.4 (13:20) 8.9 (00:00) 11.6 5.56 (16:30) 3.89 (16:30) 0 0 0 0 0
29-12-2019 14.4 (13:10) 10.2 (00:00) 12.3 4.17 (05:00) 2.78 (05:00) 0 0 0 0 0
28-12-2019 15.5 (14:10) 6.6 (00:00) 11 5.83 (15:20) 4.17 (04:50) 0 0 0 0 0
27-12-2019 15.4 (14:00) 8.5 (00:00) 11.9 8.06 (07:50) 4.44 (14:40) 0 0 0 0 0
26-12-2019 17.5 (15:50) 9.2 (00:00) 13.3 5.83 (23:50) 3.89 (08:30) 0 0 0 0 0
25-12-2019 18.4 (13:50) 9.7 (00:00) 14 5.56 (16:10) 4.44 (16:10) 0 0 0 0 0
24-12-2019 17.8 (13:20) 8.8 (00:00) 13.3 8.33 (16:00) 5 (14:30) 0 0 0 0 0
23-12-2019 15.9 (13:30) 10.7 (00:00) 13.3 15 (08:50) 7.5 (08:40) 0 0 0 0 0
22-12-2019 18.5 (14:10) 13.8 (00:00) 16.2 22.5 (00:40) 11.94 (00:40) 0 0 0 0 0
21-12-2019 18.9 (12:20) 12.2 (00:00) 15.5 22.78 (23:00) 10.83 (23:10) 0.6 0.2 0 0.3 0.1
20-12-2019 17.5 (14:20) 13.5 (00:00) 15.5 12.78 (10:00) 6.39 (10:00) 9 5.7 1.5 0 1.8

Gráficas

Temp. máximas Temp. mínimas Temp. medias Precipitaciones Rachas de viento máximas Velocidades máximas media en intervalos de 10 minutos

Datos horarios

Fecha y hora oficial Temperatura (ºC) Velocidad del viento (km/h) Dirección del viento Racha (km/h) Dirección de racha Precipitación (mm) Presión (hPa) Tendencia (hPa) Humedad (%)
2020-01-18 23:00:00 11.4 5 Norte 8 Nordeste 0 -- -- 80
2020-01-18 22:00:00 12 3 Oeste 8 Oeste 0 -- -- 81
2020-01-18 21:00:00 11.6 4 Oeste 14 Sudoeste 0 -- -- 79
2020-01-18 20:00:00 11.5 8 Oeste 18 Oeste 0 -- -- 77
2020-01-18 19:00:00 11.7 10 Sudoeste 27 Oeste 0 -- -- 74
2020-01-18 18:00:00 11.7 13 Oeste 27 Sudoeste 0 -- -- 73
2020-01-18 17:00:00 12.4 15 Sudoeste 27 Sudoeste 0 -- -- 67
2020-01-18 16:00:00 14.4 13 Oeste 26 Oeste 0 -- -- 55
2020-01-18 15:00:00 13.1 14 Sudoeste 24 Sudoeste 0 -- -- 58
2020-01-18 14:00:00 14 8 Sudeste 14 Sur 0 -- -- 62
2020-01-18 13:00:00 13.8 5 Este 13 Nordeste 0 -- -- 61
2020-01-18 12:00:00 13.1 6 Nordeste 12 Norte 0 -- -- 59
2020-01-18 11:00:00 11.4 4 Norte 12 Norte 0 -- -- 64
2020-01-18 10:00:00 10.3 5 Norte 18 Norte 0 -- -- 71
2020-01-18 09:00:00 9.5 10 Norte 20 Norte 0 -- -- 72
2020-01-18 08:00:00 9.5 10 Norte 24 Norte 0 -- -- 75
2020-01-18 07:00:00 9 10 Norte 20 Norte 0 -- -- 78
2020-01-18 06:00:00 9.1 13 Norte 18 Noroeste 0 -- -- 76
2020-01-18 05:00:00 9 11 Norte 18 Norte 0 -- -- 70
2020-01-18 04:00:00 8.9 10 Norte 17 Norte 0 -- -- 66
2020-01-18 03:00:00 9.3 10 Norte 18 Norte 0 -- -- 60
2020-01-18 02:00:00 9.8 12 Norte 17 Norte 0 -- -- 58
2020-01-18 01:00:00 10.5 8 Norte 13 Norte 0 -- -- 62
2020-01-18 00:00:00 11.3 9 Oeste 14 Oeste 0 -- -- 68
2020-01-17 23:00:00 11.4 6 Noroeste 15 Este 0 -- -- 76
2020-01-17 22:00:00 12 9 Nordeste 22 Este 0 -- -- 69
2020-01-17 21:00:00 12.3 10 Nordeste 18 Nordeste 0 -- -- 73
2020-01-17 20:00:00 13.9 7 Noroeste 28 Oeste 0 -- -- 44
2020-01-17 19:00:00 14.9 9 Noroeste 39 Oeste 0 -- -- 43
2020-01-17 18:00:00 15.4 18 Oeste 35 Oeste 0 -- -- 44
2020-01-17 17:00:00 15.8 27 Noroeste 50 Oeste 0 -- -- 46
2020-01-17 16:00:00 16.2 18 Oeste 48 Noroeste 0 -- -- 47
2020-01-17 15:00:00 17 21 Noroeste 47 Oeste 0 -- -- 45
2020-01-17 14:00:00 17.6 13 Noroeste 41 Noroeste 0 -- -- 45
2020-01-17 13:00:00 16.8 13 Noroeste 39 Noroeste 0 -- -- 47
2020-01-17 12:00:00 15.9 14 Oeste 31 Oeste 0 -- -- 51
2020-01-17 11:00:00 14.6 13 Oeste 23 Oeste 0 -- -- 58
2020-01-17 10:00:00 12.8 7 Oeste 17 Oeste 0 -- -- 69
2020-01-17 09:00:00 11.4 8 Oeste 18 Oeste 0 -- -- 80
2020-01-17 08:00:00 10.1 9 Oeste 23 Oeste 0 -- -- 89
2020-01-17 07:00:00 10.2 10 Oeste 21 Oeste 0 -- -- 88
2020-01-17 06:00:00 10.3 4 Noroeste 14 Noroeste 0 -- -- 90
2020-01-17 05:00:00 11 5 Sudoeste 13 Sudoeste 0 -- -- 90
2020-01-17 04:00:00 10.6 0 Calma 10 Norte 0 -- -- 90
2020-01-17 03:00:00 11 5 Norte 9 Norte 0 -- -- 89
2020-01-17 02:00:00 11.2 0 Calma 7 Oeste 0 -- -- 90
2020-01-17 01:00:00 10.7 3 Noroeste 9 Norte 0 -- -- 89
2020-01-17 00:00:00 11.4 2 Noroeste 7 Oeste 0 -- -- 91
2020-01-16 23:00:00 12.1 4 Oeste 11 Oeste 0 -- -- 92
2020-01-16 22:00:00 12.1 7 Oeste 12 Oeste 0 -- -- 92
2020-01-16 21:00:00 12.3 7 Oeste 19 Oeste 0 -- -- 92
2020-01-16 20:00:00 12.2 9 Sudoeste 19 Sudoeste 0 -- -- 92
2020-01-16 19:00:00 12.2 9 Oeste 17 Oeste 0 -- -- 91
2020-01-16 18:00:00 12.4 8 Oeste 21 Sudoeste 0 -- -- 89
2020-01-16 17:00:00 12.9 14 Sudoeste 24 Sudoeste 0 -- -- 86
2020-01-16 16:00:00 14.1 15 Sudoeste 26 Sudoeste 0 -- -- 77
2020-01-16 15:00:00 13.6 18 Sudoeste 23 Sudoeste 0 -- -- 80
2020-01-16 14:00:00 13.5 17 Sudoeste 20 Sudoeste 0 -- -- 73
2020-01-16 13:00:00 14 11 Sudoeste 17 Sur 0 -- -- 60
2020-01-16 12:00:00 13.1 5 Sudeste 9 Sudeste 0 -- -- 68
2020-01-16 11:00:00 9.8 8 Norte 16 Norte 0 -- -- 70
2020-01-16 10:00:00 8 14 Norte 18 Norte 0 -- -- 76
2020-01-16 09:00:00 6.7 15 Norte 19 Norte 0 -- -- 80
2020-01-16 08:00:00 6.4 14 Norte 20 Norte 0 -- -- 81
2020-01-16 07:00:00 7.2 13 Norte 18 Norte 0 -- -- 78
2020-01-16 06:00:00 7.4 13 Norte 18 Norte 0 -- -- 77
2020-01-16 05:00:00 7.6 15 Norte 19 Norte 0 -- -- 76
2020-01-16 04:00:00 8.2 11 Norte 18 Norte 0 -- -- 74
2020-01-16 03:00:00 8.2 11 Norte 18 Norte 0 -- -- 74
2020-01-16 02:00:00 8.3 10 Norte 14 Norte 0 -- -- 74
2020-01-16 01:00:00 9.6 2 Sudeste 20 Noroeste 0 -- -- 70
2020-01-16 00:00:00 10.6 12 Norte 20 Norte 0 -- -- 64
2020-01-15 23:00:00 10.4 6 Norte 9 Norte 0 -- -- 69
2020-01-15 22:00:00 11.1 8 Oeste 14 Oeste 0 -- -- 69
2020-01-15 21:00:00 11.6 10 Oeste 17 Oeste 0 -- -- 68
2020-01-15 20:00:00 11.6 12 Oeste 17 Oeste 0 -- -- 69
2020-01-15 19:00:00 11.5 11 Oeste 21 Oeste 0 -- -- 71
2020-01-15 18:00:00 11.8 11 Oeste 24 Oeste 0 -- -- 71
2020-01-15 17:00:00 12.3 9 Sudoeste 29 Sudoeste 0 -- -- 61
2020-01-15 16:00:00 13.7 16 Sudoeste 26 Sudoeste 0 -- -- 47
2020-01-15 15:00:00 14.5 14 Sudoeste 24 Sudoeste 0 -- -- 45
2020-01-15 14:00:00 13.8 8 Sudoeste 17 Oeste 0 -- -- 55
2020-01-15 13:00:00 13 3 Sur 12 Sudoeste 0 -- -- 59
2020-01-15 12:00:00 11.9 4 Sudeste 8 Sur 0 -- -- 64
2020-01-15 11:00:00 10.1 2 Norte 12 Norte 0 -- -- 70
2020-01-15 10:00:00 6.8 9 Norte 17 Norte 0 -- -- 80
2020-01-15 09:00:00 5.8 10 Norte 13 Norte 0 -- -- 86
2020-01-15 08:00:00 5.3 8 Norte 12 Noroeste 0 -- -- 88
2020-01-15 07:00:00 5.7 9 Norte 15 Norte 0 -- -- 88
2020-01-15 06:00:00 5.6 7 Noroeste 13 Norte 0 -- -- 89
2020-01-15 05:00:00 5.8 9 Norte 14 Norte 0 -- -- 89
2020-01-15 04:00:00 6.2 10 Norte 13 Norte 0 -- -- 89
2020-01-15 03:00:00 6.4 9 Norte 13 Norte 0 -- -- 87
2020-01-15 02:00:00 7 10 Norte 12 Norte 0 -- -- 85
2020-01-15 01:00:00 7.5 9 Norte 11 Norte 0 -- -- 85
2020-01-15 00:00:00 8.7 5 Norte 8 Norte 0 -- -- 83
2020-01-14 23:00:00 9.6 4 Noroeste 7 Oeste 0 -- -- 84
2020-01-14 22:00:00 11.1 6 Oeste 12 Oeste 0 -- -- 82
2020-01-14 21:00:00 11.2 8 Oeste 16 Oeste 0 -- -- 82
2020-01-14 20:00:00 11.3 9 Oeste 14 Oeste 0 -- -- 82
2020-01-14 19:00:00 11.6 10 Oeste 18 Sudoeste 0 -- -- 81
2020-01-14 18:00:00 11.8 11 Oeste 26 Oeste 0 -- -- 73
2020-01-14 17:00:00 12.7 13 Sudoeste 26 Sudoeste 0 -- -- 52
2020-01-14 16:00:00 13.4 15 Sudoeste 25 Sudoeste 0 -- -- 52
2020-01-14 15:00:00 13.8 18 Sudoeste 27 Sudoeste 0 -- -- 47
2020-01-14 14:00:00 14 15 Sudoeste 22 Sudoeste 0 -- -- 46
2020-01-14 13:00:00 14.5 8 Sudoeste 15 Oeste 0 -- -- 40
2020-01-14 12:00:00 13.3 5 Oeste 19 Oeste 0 -- -- 42
2020-01-14 11:00:00 11.7 13 Oeste 22 Oeste 0 -- -- 46
2020-01-14 10:00:00 9.8 6 Noroeste 10 Noroeste 0 -- -- 57
2020-01-14 09:00:00 6.8 9 Noroeste 13 Noroeste 0 -- -- 68
2020-01-14 08:00:00 7.1 8 Oeste 17 Norte 0 -- -- 66
2020-01-14 07:00:00 4.2 12 Norte 18 Norte 0 -- -- 84
2020-01-14 06:00:00 5.2 7 Noroeste 11 Norte 0 -- -- 84
2020-01-14 05:00:00 6.1 6 Noroeste 10 Noroeste 0 -- -- 86
2020-01-14 04:00:00 6.4 6 Noroeste 9 Norte 0 -- -- 85
2020-01-14 03:00:00 7.6 4 Noroeste 8 Oeste 0 -- -- 85
2020-01-14 02:00:00 7.9 4 Noroeste 9 Norte 0 -- -- 86
2020-01-14 01:00:00 9 5 Oeste 12 Sudoeste 0 -- -- 85
2020-01-14 00:00:00 9.2 5 Noroeste 10 Noroeste 0 -- -- 80
2020-01-13 23:00:00 9.4 7 Noroeste 13 Noroeste 0 -- -- 76
2020-01-13 22:00:00 10 9 Oeste 14 Noroeste 0 -- -- 77
2020-01-13 21:00:00 10.2 9 Oeste 19 Oeste 0 -- -- 77
2020-01-13 20:00:00 10.3 9 Oeste 22 Oeste 0 -- -- 78
2020-01-13 19:00:00 10.6 10 Oeste 26 Oeste 0 -- -- 79
2020-01-13 18:00:00 10.9 12 Oeste 24 Oeste 0 -- -- 77
2020-01-13 17:00:00 11.4 12 Oeste 23 Sudoeste 0 -- -- 69
2020-01-13 16:00:00 12.1 10 Oeste 30 Oeste 0 -- -- 60
2020-01-13 15:00:00 12.7 10 Sudoeste 23 Oeste 0 -- -- 49
2020-01-13 14:00:00 12 14 Sudoeste 22 Sudoeste 0 -- -- 51
2020-01-13 13:00:00 11.7 0 Calma 13 Oeste 0 -- -- 49
2020-01-13 12:00:00 11.2 5 Este 10 Este 0 -- -- 51
2020-01-13 11:00:00 9.8 4 Nordeste 9 Nordeste 0 -- -- 55
2020-01-13 10:00:00 8.3 3 Norte 11 Norte 0 -- -- 57
2020-01-13 09:00:00 5.5 7 Norte 11 Norte 0 -- -- 64
2020-01-13 08:00:00 7.1 6 Oeste 13 Oeste 0 -- -- 56
2020-01-13 07:00:00 7.4 9 Oeste 14 Oeste 0 -- -- 56
2020-01-13 06:00:00 7.7 9 Noroeste 18 Oeste 0 -- -- 54
2020-01-13 05:00:00 7.4 11 Oeste 16 Oeste 0 -- -- 55
2020-01-13 04:00:00 7.7 12 Oeste 16 Oeste 0 -- -- 56
2020-01-13 03:00:00 8.3 10 Oeste 14 Oeste 0 -- -- 52
2020-01-13 02:00:00 8.6 6 Oeste 13 Oeste 0 -- -- 53
2020-01-13 01:00:00 8.6 7 Oeste 14 Sudoeste 0 -- -- 56
2020-01-13 00:00:00 8.3 4 Oeste 10 Norte 0 -- -- 67
2020-01-12 23:00:00 7.8 0 Calma 8 Norte 0 -- -- 76
2020-01-12 22:00:00 8.8 4 Norte 13 Oeste 0 -- -- 74
2020-01-12 21:00:00 9.9 9 Oeste 12 Oeste 0 -- -- 69
2020-01-12 20:00:00 9.9 5 Oeste 13 Oeste 0 -- -- 75
2020-01-12 19:00:00 10.4 8 Sudoeste 15 Oeste 0 -- -- 75
2020-01-12 18:00:00 10.9 8 Sudoeste 17 Sudoeste 0 -- -- 76
2020-01-12 17:00:00 11.4 13 Sur 17 Sudoeste 0 -- -- 77
2020-01-12 16:00:00 12.6 6 Sur 12 Sur 0 -- -- 68
2020-01-12 15:00:00 13.1 8 Sur 14 Sudeste 0 -- -- 59
2020-01-12 14:00:00 13.1 4 Este 13 Este 0 -- -- 63
2020-01-12 13:00:00 11.2 6 Norte 13 Norte 0 -- -- 66
2020-01-12 12:00:00 9.8 8 Norte 15 Norte 0 -- -- 64
2020-01-12 11:00:00 8 9 Norte 19 Norte 0 -- -- 69
2020-01-12 10:00:00 6.1 10 Norte 18 Norte 0 -- -- 78
2020-01-12 09:00:00 4.4 10 Norte 19 Norte 0 -- -- 84
2020-01-12 08:00:00 4.4 10 Norte 20 Norte 0 -- -- 85
2020-01-12 07:00:00 4.5 10 Norte 20 Norte 0 -- -- 86
2020-01-12 06:00:00 5.4 10 Norte 15 Norte 0 -- -- 83
2020-01-12 05:00:00 5 9 Norte 16 Norte 0 -- -- 85
2020-01-12 04:00:00 5.2 8 Norte 14 Norte 0 -- -- 84
2020-01-12 03:00:00 6.1 9 Norte 18 Norte 0 -- -- 81
2020-01-12 02:00:00 6.1 9 Norte 14 Noroeste 0 -- -- 80
2020-01-12 01:00:00 6.2 10 Norte 15 Norte 0 -- -- 78
2020-01-12 00:00:00 6.9 8 Norte 14 Noroeste 0 -- -- 75
2020-01-11 23:00:00 7.5 6 Norte 10 Norte 0 -- -- 67
2020-01-11 22:00:00 8.3 6 Norte 13 Norte 0 -- -- 64
2020-01-11 21:00:00 9.1 6 Noroeste 14 Noroeste 0 -- -- 60
2020-01-11 20:00:00 8.8 8 Norte 13 Norte 0 -- -- 72
2020-01-11 19:00:00 9.5 0 Calma 2 Nordeste 0 -- -- 72
2020-01-11 18:00:00 10.1 0 Calma 9 Este 0 -- -- 69
2020-01-11 17:00:00 10.7 5 Sudeste 14 Este 0 -- -- 66
2020-01-11 16:00:00 11.7 10 Este 17 Este 0 -- -- 63
2020-01-11 15:00:00 12.1 0 Calma 13 Este 0 -- -- 55
2020-01-11 14:00:00 11.8 8 Sudeste 13 Sudeste 0 -- -- 64
2020-01-11 13:00:00 10.4 6 Noroeste 20 Norte 0 -- -- 66
2020-01-11 12:00:00 9.2 10 Norte 22 Norte 0 -- -- 68
2020-01-11 11:00:00 8.3 13 Norte 23 Noroeste 0 -- -- 67
2020-01-11 10:00:00 7.3 12 Noroeste 27 Norte 0 -- -- 74
2020-01-11 09:00:00 6.5 10 Norte 23 Norte 0 -- -- 79
2020-01-11 08:00:00 6.8 10 Norte 15 Norte 0 -- -- 81
2020-01-11 07:00:00 7.2 4 Norte 18 Norte 0 -- -- 80
2020-01-11 06:00:00 7.3 9 Norte 22 Norte 0 -- -- 82
2020-01-11 05:00:00 7.5 9 Norte 18 Norte 0 -- -- 84
2020-01-11 04:00:00 7.2 9 Norte 18 Norte 0 -- -- 88
2020-01-11 03:00:00 7.5 9 Norte 17 Norte 0 -- -- 87
2020-01-11 02:00:00 7.8 10 Norte 19 Norte 0 -- -- 87
2020-01-11 01:00:00 8 11 Norte 18 Norte 0 -- -- 87
2020-01-11 00:00:00 8.2 9 Norte 21 Norte 0 -- -- 84
2020-01-10 23:00:00 8.5 9 Norte 20 Noroeste 0 -- -- 83
2020-01-10 22:00:00 8.6 14 Norte 21 Norte 0 -- -- 83
2020-01-10 21:00:00 8.9 5 Norte 12 Norte 0 -- -- 81
2020-01-10 20:00:00 9.3 8 Oeste 19 Noroeste 0 -- -- 81
2020-01-10 19:00:00 9.6 11 Oeste 17 Oeste 0 -- -- 82
2020-01-10 18:00:00 10.6 9 Oeste 21 Oeste 0 -- -- 85
2020-01-10 17:00:00 11 8 Oeste 14 Oeste 0 -- -- 80
2020-01-10 16:00:00 12 4 Oeste 14 Oeste 0 -- -- 75
2020-01-10 15:00:00 11.8 3 Nordeste 21 Noroeste 0 -- -- 78
2020-01-10 14:00:00 10.2 8 Nordeste 24 Este 0 -- -- 86
2020-01-10 13:00:00 10.2 9 Oeste 20 Oeste 0.1 -- -- 88
2020-01-10 12:00:00 9 7 Noroeste 19 Este 0.3 -- -- 92
2020-01-10 11:00:00 8.7 10 Norte 22 Norte 1.1 -- -- 92
2020-01-10 10:00:00 9.6 7 Norte 30 Este 4.8 -- -- 94
2020-01-10 09:00:00 10.2 24 Este 38 Este 3.6 -- -- 94
2020-01-10 08:00:00 9.5 10 Nordeste 20 Nordeste 2.4 -- -- 95
2020-01-10 07:00:00 9.5 8 Nordeste 17 Nordeste 0.5 -- -- 93
2020-01-10 06:00:00 9.9 8 Norte 15 Norte 0 -- -- 90
2020-01-10 05:00:00 9.7 8 Norte 14 Norte 0 -- -- 89
2020-01-10 04:00:00 10.3 7 Norte 13 Norte 0 -- -- 89
2020-01-10 03:00:00 10 8 Norte 13 Norte 0 -- -- 89
2020-01-10 02:00:00 9.6 7 Norte 12 Norte 0 -- -- 90
2020-01-10 01:00:00 10.6 0 Calma 12 Oeste 0 -- -- 87
2020-01-10 00:00:00 11.3 5 Oeste 12 Oeste 0 -- -- 86
2020-01-09 23:00:00 11.2 7 Oeste 13 Oeste 0 -- -- 85
2020-01-09 22:00:00 11.2 8 Oeste 15 Oeste 0 -- -- 85
2020-01-09 21:00:00 11.4 6 Oeste 20 Oeste 0 -- -- 83
2020-01-09 20:00:00 11.4 11 Oeste 23 Oeste 0 -- -- 85
2020-01-09 19:00:00 11.4 12 Oeste 26 Sudoeste 0 -- -- 87
2020-01-09 18:00:00 11.8 17 Sudoeste 28 Sudoeste 0 -- -- 86
2020-01-09 17:00:00 12.3 17 Sudoeste 31 Sudoeste 0 -- -- 83
2020-01-09 16:00:00 13.2 17 Sudoeste 30 Sudoeste 0 -- -- 77
2020-01-09 15:00:00 13.7 17 Sudoeste 29 Sudoeste 0 -- -- 77
2020-01-09 14:00:00 13.9 13 Sudoeste 28 Sudoeste 0 -- -- 77
2020-01-09 13:00:00 13.4 13 Sudoeste 27 Sudoeste 0 -- -- 77
2020-01-09 12:00:00 13 11 Sudoeste 21 Sudoeste 0 -- -- 80
2020-01-09 11:00:00 11 3 Noroeste 5 Noroeste 0 -- -- 79
2020-01-09 10:00:00 8.7 4 Noroeste 10 Noroeste 0 -- -- 86
2020-01-09 09:00:00 6.6 6 Norte 12 Norte 0 -- -- 92
2020-01-09 08:00:00 6.4 7 Norte 12 Norte 0 -- -- 92
2020-01-09 07:00:00 6.5 9 Norte 12 Norte 0 -- -- 92
2020-01-09 06:00:00 6.8 7 Norte 12 Norte 0 -- -- 92
2020-01-09 05:00:00 7.1 8 Norte 14 Norte 0 -- -- 93
2020-01-09 04:00:00 7.9 12 Norte 15 Norte 0 -- -- 93
2020-01-09 03:00:00 8.2 12 Norte 17 Norte 0 -- -- 93
2020-01-09 02:00:00 8.5 13 Norte 15 Norte 0 -- -- 92
2020-01-09 01:00:00 9 13 Norte 14 Norte 0 -- -- 92
2020-01-09 00:00:00 9.5 11 Norte 13 Norte 0 -- -- 92
2020-01-08 23:00:00 10.5 10 Norte 13 Norte 0 -- -- 90
2020-01-08 22:00:00 10.8 10 Norte 12 Norte 0 -- -- 90
2020-01-08 21:00:00 11.4 7 Norte 9 Norte 0 -- -- 88
2020-01-08 20:00:00 12.4 0 Calma 5 Este 0 -- -- 86
2020-01-08 19:00:00 12.8 6 Este 14 Este 0 -- -- 85
2020-01-08 18:00:00 13.2 10 Sudeste 13 Sudeste 0 -- -- 82
2020-01-08 17:00:00 13.7 0 Calma 8 Sudeste 0 -- -- 82
2020-01-08 16:00:00 15.1 6 Sudeste 12 Sudeste 0 -- -- 73
2020-01-08 15:00:00 15.3 10 Sudeste 13 Sudeste 0 -- -- 69
2020-01-08 14:00:00 15.9 0 Calma 0 Calma 0 -- -- 67
2020-01-08 13:00:00 15.2 2 Sur 11 Sudeste 0 -- -- 67
2020-01-08 12:00:00 14.2 5 Norte 12 Noroeste 0 -- -- 64
2020-01-08 11:00:00 11.5 9 Norte 18 Noroeste 0 -- -- 65
2020-01-08 10:00:00 9.9 12 Norte 19 Norte 0 -- -- 70
2020-01-08 09:00:00 8 15 Norte 19 Norte 0 -- -- 77
2020-01-08 08:00:00 7.6 16 Norte 19 Norte 0 -- -- 81
2020-01-08 07:00:00 7 13 Norte 19 Norte 0 -- -- 84
2020-01-08 06:00:00 7.7 14 Norte 18 Norte 0 -- -- 82
2020-01-08 05:00:00 7.7 12 Norte 19 Norte 0 -- -- 81
2020-01-08 04:00:00 7.7 14 Norte 21 Norte 0 -- -- 80
2020-01-08 03:00:00 7.4 12 Norte 19 Norte 0 -- -- 75
2020-01-08 02:00:00 7.6 5 Norte 10 Norte 0 -- -- 73
2020-01-08 01:00:00 8.2 6 Noroeste 9 Noroeste 0 -- -- 74
2020-01-08 00:00:00 8.5 2 Norte 10 Norte 0 -- -- 73
2020-01-07 23:00:00 9.8 3 Noroeste 12 Norte 0 -- -- 72
2020-01-07 22:00:00 9.3 7 Norte 10 Norte 0 -- -- 72
2020-01-07 21:00:00 10.1 8 Norte 10 Norte 0 -- -- 70
2020-01-07 20:00:00 11.2 3 Noroeste 6 Norte 0 -- -- 67
2020-01-07 19:00:00 11.6 4 Norte 15 Oeste 0 -- -- 72
2020-01-07 18:00:00 12 9 Oeste 18 Sudoeste 0 -- -- 73
2020-01-07 17:00:00 12.3 13 Sudoeste 22 Sudoeste 0 -- -- 82
2020-01-07 16:00:00 14.2 15 Sudoeste 20 Sudoeste 0 -- -- 59
2020-01-07 15:00:00 15.1 12 Oeste 20 Oeste 0 -- -- 46
2020-01-07 14:00:00 14.7 12 Oeste 17 Oeste 0 -- -- 50
2020-01-07 13:00:00 14 4 Sur 9 Sudeste 0 -- -- 60
2020-01-07 12:00:00 12.2 5 Sur 10 Norte 0 -- -- 64
2020-01-07 11:00:00 10.8 4 Norte 8 Norte 0 -- -- 64
2020-01-07 10:00:00 8.6 5 Norte 14 Norte 0 -- -- 71
2020-01-07 09:00:00 6.5 10 Norte 13 Norte 0 -- -- 81
2020-01-07 08:00:00 6.5 7 Noroeste 17 Norte 0 -- -- 84
2020-01-07 07:00:00 6.2 12 Norte 15 Norte 0 -- -- 85
2020-01-07 06:00:00 7.2 10 Norte 17 Norte 0 -- -- 84
2020-01-07 05:00:00 7.3 9 Norte 18 Norte 0 -- -- 86
2020-01-07 04:00:00 7 14 Norte 18 Norte 0 -- -- 91
2020-01-07 03:00:00 7.6 10 Norte 17 Norte 0 -- -- 91
2020-01-07 02:00:00 8.6 12 Norte 16 Norte 0 -- -- 90
2020-01-07 01:00:00 8.9 12 Norte 17 Norte 0 -- -- 90
2020-01-07 00:00:00 9.1 10 Norte 15 Norte 0 -- -- 90
2020-01-06 23:00:00 9.4 9 Norte 15 Norte 0 -- -- 90
2020-01-06 22:00:00 10.1 10 Norte 14 Norte 0 -- -- 89
2020-01-06 21:00:00 10.4 9 Norte 12 Norte 0 -- -- 88
2020-01-06 20:00:00 11.7 6 Oeste 8 Oeste 0 -- -- 82
2020-01-06 19:00:00 12 5 Oeste 6 Oeste 0 -- -- 83
2020-01-06 18:00:00 12.2 4 Sudoeste 10 Sudeste 0 -- -- 82
2020-01-06 17:00:00 13.1 6 Sudeste 11 Sudeste 0 -- -- 78
2020-01-06 16:00:00 14.5 9 Sudeste 12 Sudeste 0 -- -- 70
2020-01-06 15:00:00 14.8 8 Sudeste 12 Sudeste 0 -- -- 66
2020-01-06 14:00:00 15.4 7 Sudeste 12 Sudeste 0 -- -- 65
2020-01-06 13:00:00 14 4 Norte 12 Norte 0 -- -- 65
2020-01-06 12:00:00 12.3 7 Norte 14 Norte 0 -- -- 61
2020-01-06 11:00:00 10.2 9 Norte 19 Noroeste 0 -- -- 65
2020-01-06 10:00:00 8.5 11 Norte 22 Norte 0 -- -- 70